Time;durP1;ratioP1;P1;durP2;ratioP2;P2;SDS_P1;SDS_P2;PMS_P1;PMS_P2;Temp;Humidity;BMP_temperature;BMP_pressure;BME280_temperature;BME280_humidity;BME280_pressure;Samples;Min_cycle;Max_cycle;Signal;HPM_P1;HPM_P2
2022/06/17 00:00:56;;;;;;;;;;;;;;;28.09;50.31;98926.75;2052977;28;20345;-69
2022/06/17 00:02:01;;;;;;;;;;;;;;;28.08;50.18;98933.25;2052431;28;19949;-69
2022/06/17 00:03:02;;;;;;;;;;;;;;;28.07;50.12;98934.34;2051136;28;19938;-70
2022/06/17 00:04:03;;;;;;;;;;;;;;;28.08;50.19;98933.25;2051948;28;20400;-69
2022/06/17 00:05:04;;;;;;;;;;;;;;;28.09;50.32;98932.19;2050925;28;20497;-69
2022/06/17 00:06:11;;;;;;;;;;;;;;;28.12;50.29;98930.88;2049659;28;19941;-70
2022/06/17 00:07:13;;;;;;;;;;;;;;;28.10;50.13;98920.19;2051851;28;20011;-69
2022/06/17 00:08:26;;;;;;;;;;;;;;;28.12;50.43;98925.41;2055394;28;20363;-69
2022/06/17 00:09:28;;;;;;;;;;;;;;;28.11;50.28;98918.28;2054371;28;19972;-69
2022/06/17 00:10:29;;;;;;;;;;;;;;;28.10;50.53;98908.47;2053722;28;19938;-70
2022/06/17 00:11:31;;;;;;;;;;;;;;;28.12;50.24;98914.50;2048608;28;20523;-70
2022/06/17 00:12:33;;;;;;;;;;;;;;;28.08;50.40;98916.91;2053090;28;19930;-69
2022/06/17 00:13:34;;;;;;;;;;;;;;;28.08;50.61;98922.34;2050590;28;19934;-69
2022/06/17 00:15:11;;;;;;;;;;;;;;;28.09;50.39;98915.84;2055838;28;19961;-69
2022/06/17 00:15:59;;;;;;;;;;;;;;;28.09;50.66;98918.56;2049461;28;19934;-70
2022/06/17 00:17:03;;;;;;;;;;;;;;;28.09;50.62;98918.56;2054451;28;20418;-69
2022/06/17 00:18:04;;;;;;;;;;;;;;;28.08;50.45;98916.91;2054815;28;20220;-69
2022/06/17 00:19:06;;;;;;;;;;;;;;;28.08;50.38;98919.63;2054145;28;20493;-69
2022/06/17 00:20:08;;;;;;;;;;;;;;;28.11;50.33;98921.03;2053926;28;19930;-69
2022/06/17 00:21:20;;;;;;;;;;;;;;;28.11;50.65;98918.28;2049227;28;19999;-70
2022/06/17 00:22:20;;;;;;;;;;;;;;;28.11;50.59;98927.31;2053528;28;20013;-69
2022/06/17 00:23:24;;;;;;;;;;;;;;;28.10;50.36;98920.19;2049527;28;19931;-70
2022/06/17 00:24:26;;;;;;;;;;;;;;;28.12;50.71;98920.78;2049688;28;19977;-70
2022/06/17 00:25:32;;;;;;;;;;;;;;;28.11;50.58;98918.28;2054342;28;20004;-69
2022/06/17 00:26:33;;;;;;;;;;;;;;;28.09;50.55;98921.28;2054167;28;19930;-70
2022/06/17 00:27:39;;;;;;;;;;;;;;;28.11;50.29;98918.28;2049537;28;19934;-70
2022/06/17 00:28:43;;;;;;;;;;;;;;;28.11;50.45;98912.84;2052543;28;19937;-70
2022/06/17 00:29:43;;;;;;;;;;;;;;;28.11;50.57;98913.69;2054510;28;20000;-70
2022/06/17 00:30:46;;;;;;;;;;;;;;;28.11;50.36;98913.69;2052303;28;20000;-70
2022/06/17 00:31:48;;;;;;;;;;;;;;;28.12;50.35;98914.50;2052432;28;20001;-70
2022/06/17 00:32:52;;;;;;;;;;;;;;;28.11;50.77;98918.28;2055564;28;20004;-70
2022/06/17 00:33:53;;;;;;;;;;;;;;;28.11;50.80;98913.69;2052433;28;19949;-69
2022/06/17 00:34:55;;;;;;;;;;;;;;;28.12;50.75;98904.41;2055139;28;19929;-69
2022/06/17 00:35:56;;;;;;;;;;;;;;;28.11;50.74;98902.78;2052521;28;20442;-70
2022/06/17 00:37:00;;;;;;;;;;;;;;;28.10;50.67;98906.56;2054151;28;20339;-70
2022/06/17 00:38:01;;;;;;;;;;;;;;;28.08;50.70;98906.00;2053434;28;19934;-70
2022/06/17 00:39:05;;;;;;;;;;;;;;;28.07;50.61;98901.63;2051739;28;19947;-69
2022/06/17 00:40:10;;;;;;;;;;;;;;;28.07;50.76;98893.44;2053685;28;20437;-70
2022/06/17 00:41:15;;;;;;;;;;;;;;;28.09;50.63;98894.03;2055761;28;19930;-70
2022/06/17 00:42:19;;;;;;;;;;;;;;;28.09;50.99;98891.31;2055187;28;20105;-70
2022/06/17 00:43:28;;;;;;;;;;;;;;;28.08;50.44;98889.63;2053150;28;20019;-70
2022/06/17 00:44:29;;;;;;;;;;;;;;;28.10;50.76;98889.38;2055155;28;20192;-69
2022/06/17 00:45:33;;;;;;;;;;;;;;;28.09;50.53;98888.56;2055227;28;20017;-69
2022/06/17 00:46:37;;;;;;;;;;;;;;;28.09;50.67;98885.84;2053262;28;19992;-69
2022/06/17 00:47:42;;;;;;;;;;;;;;;28.07;50.44;98877.09;2053856;28;19934;-69
2022/06/17 00:48:46;;;;;;;;;;;;;;;28.07;50.56;98869.72;2053330;28;19972;-70
2022/06/17 00:49:50;;;;;;;;;;;;;;;28.09;50.53;98872.22;2055079;28;20261;-70
2022/06/17 00:50:53;;;;;;;;;;;;;;;28.07;50.90;98871.66;2050419;28;19930;-70
2022/06/17 00:52:00;;;;;;;;;;;;;;;28.08;50.61;98870.53;2052253;28;20457;-69
2022/06/17 00:53:13;;;;;;;;;;;;;;;28.07;50.68;98875.19;2053040;28;19941;-69
2022/06/17 00:54:17;;;;;;;;;;;;;;;28.06;50.68;98873.56;2055261;28;19929;-69
2022/06/17 00:55:22;;;;;;;;;;;;;;;28.06;50.68;98872.72;2052793;28;19937;-69
2022/06/17 00:56:26;;;;;;;;;;;;;;;28.05;50.92;98865.63;2054896;28;20267;-70
2022/06/17 00:57:27;;;;;;;;;;;;;;;28.07;50.64;98879.81;2054955;28;20433;-70
2022/06/17 00:58:31;;;;;;;;;;;;;;;28.07;50.95;98882.56;2054412;28;20020;-69
2022/06/17 00:59:36;;;;;;;;;;;;;;;28.07;51.28;98886.09;2049726;28;20269;-69
2022/06/17 01:00:38;;;;;;;;;;;;;;;28.06;50.86;98891.81;2052651;28;20247;-69
2022/06/17 01:01:41;;;;;;;;;;;;;;;28.07;51.23;98894.28;2052782;28;19937;-69
2022/06/17 01:02:44;;;;;;;;;;;;;;;28.06;50.83;98891.81;2053228;28;19930;-69
2022/06/17 01:03:50;;;;;;;;;;;;;;;28.07;51.07;98896.19;2052710;28;19965;-69
2022/06/17 01:04:51;;;;;;;;;;;;;;;28.06;50.77;98892.63;2054516;28;20422;-69
2022/06/17 01:05:55;;;;;;;;;;;;;;;28.06;50.86;98900.00;2049052;28;19936;-70
2022/06/17 01:07:00;;;;;;;;;;;;;;;28.04;50.87;98899.44;2051032;28;19999;-69
2022/06/17 01:08:12;;;;;;;;;;;;;;;28.03;50.98;98906.78;2053457;28;19930;-70
2022/06/17 01:10:34;;;;;;;;;;;;;;;28.04;51.20;98897.53;2054920;28;20341;-69
2022/06/17 01:11:37;;;;;;;;;;;;;;;28.01;50.80;98903.50;2050909;28;19971;-69
2022/06/17 01:12:40;;;;;;;;;;;;;;;28.02;50.82;98909.75;2051225;28;20189;-69
2022/06/17 01:13:43;;;;;;;;;;;;;;;28.03;50.88;98911.44;2053358;28;19934;-69
2022/06/17 01:14:45;;;;;;;;;;;;;;;28.04;51.00;98908.44;2055613;28;19929;-69
2022/06/17 01:15:45;;;;;;;;;;;;;;;28.04;50.84;98907.59;2052010;28;20442;-69
2022/06/17 01:16:48;;;;;;;;;;;;;;;28.03;50.88;98900.53;2052417;28;19930;-69
2022/06/17 01:17:50;;;;;;;;;;;;;;;28.02;50.66;98896.94;2054848;28;20455;-65
2022/06/17 01:18:52;;;;;;;;;;;;;;;28.01;50.48;98898.03;2052825;28;20736;-68
2022/06/17 01:19:53;;;;;;;;;;;;;;;28.00;50.68;98901.88;2053842;28;20309;-69
2022/06/17 01:20:56;;;;;;;;;;;;;;;27.99;50.63;98899.38;2052398;28;19934;-69
2022/06/17 01:22:02;;;;;;;;;;;;;;;27.98;50.60;98903.19;2050863;28;20040;-69
2022/06/17 01:23:08;;;;;;;;;;;;;;;28.00;50.57;98890.09;2050214;28;19944;-69
2022/06/17 01:24:09;;;;;;;;;;;;;;;28.01;50.88;98894.50;2052234;28;19961;-69
2022/06/17 01:25:14;;;;;;;;;;;;;;;28.02;50.37;98893.41;2054277;28;19987;-69
2022/06/17 01:26:15;;;;;;;;;;;;;;;28.02;50.64;98883.31;2054051;28;20318;-69
2022/06/17 01:27:18;;;;;;;;;;;;;;;28.02;50.58;98886.03;2049128;28;20419;-69
2022/06/17 01:28:19;;;;;;;;;;;;;;;28.03;50.65;98884.97;2054469;28;19953;-69
2022/06/17 01:29:21;;;;;;;;;;;;;;;28.04;50.64;98883.06;2050066;28;20025;-69
2022/06/17 01:30:25;;;;;;;;;;;;;;;28.04;50.73;98880.34;2054519;28;19937;-69
2022/06/17 01:31:27;;;;;;;;;;;;;;;28.04;50.49;98883.06;2055145;28;20021;-69
2022/06/17 01:32:29;;;;;;;;;;;;;;;28.03;50.45;98884.97;2050357;28;19930;-69
2022/06/17 01:33:33;;;;;;;;;;;;;;;28.04;50.80;98881.16;2053169;28;20528;-69
2022/06/17 01:34:34;;;;;;;;;;;;;;;28.03;50.27;98875.97;2053767;28;20699;-69
2022/06/17 01:35:38;;;;;;;;;;;;;;;28.05;50.82;98880.09;2054555;28;20290;-68
2022/06/17 01:36:40;;;;;;;;;;;;;;;28.02;50.68;98877.06;2045653;28;19930;-68
2022/06/17 01:37:42;;;;;;;;;;;;;;;28.02;50.45;98872.41;2047669;28;19926;-69
2022/06/17 01:38:46;;;;;;;;;;;;;;;28.04;50.57;98869.44;2050295;28;20402;-69
2022/06/17 01:39:48;;;;;;;;;;;;;;;28.04;50.78;98875.72;2051102;28;19937;-69
2022/06/17 01:40:48;;;;;;;;;;;;;;;28.04;50.71;98881.16;2048654;28;19937;-69
2022/06/17 01:41:51;;;;;;;;;;;;;;;28.03;50.30;98881.44;2048091;28;19952;-68
2022/06/17 01:42:52;;;;;;;;;;;;;;;28.04;50.50;98883.06;2048199;28;20460;-67
2022/06/17 01:43:55;;;;;;;;;;;;;;;28.04;50.57;98885.78;2048172;28;19991;-68
2022/06/17 01:44:55;;;;;;;;;;;;;;;28.03;50.71;98879.53;2049271;28;19934;-69
2022/06/17 01:45:59;;;;;;;;;;;;;;;28.04;50.62;98877.63;2050042;28;20493;-69
2022/06/17 01:47:01;;;;;;;;;;;;;;;28.03;50.55;98879.53;2047422;28;20233;-68
2022/06/17 01:48:05;;;;;;;;;;;;;;;28.03;50.92;98889.63;2050047;28;19934;-69
2022/06/17 01:49:07;;;;;;;;;;;;;;;28.00;50.97;98885.50;2045476;28;19934;-69
2022/06/17 01:50:10;;;;;;;;;;;;;;;28.01;50.74;98880.88;2050746;28;19929;-68
2022/06/17 01:51:12;;;;;;;;;;;;;;;28.02;50.82;98883.31;2048804;28;19934;-69
2022/06/17 01:52:20;;;;;;;;;;;;;;;28.02;50.87;98882.50;2048555;28;19930;-68
2022/06/17 01:53:27;;;;;;;;;;;;;;;28.03;50.46;98886.88;2049073;28;20556;-68
2022/06/17 01:54:32;;;;;;;;;;;;;;;28.03;50.64;98887.72;2049703;28;20349;-68
2022/06/17 01:55:35;;;;;;;;;;;;;;;28.03;50.81;98887.72;2045029;28;20291;-69
2022/06/17 01:56:39;;;;;;;;;;;;;;;28.03;50.88;98884.16;2049069;28;19945;-69
2022/06/17 01:57:45;;;;;;;;;;;;;;;28.03;50.75;98884.16;2046653;28;19952;-69
2022/06/17 01:58:50;;;;;;;;;;;;;;;28.03;50.74;98890.44;2052182;28;20981;-68
2022/06/17 01:59:53;;;;;;;;;;;;;;;28.04;50.98;98885.78;2050647;28;19930;-68
2022/06/17 02:00:55;;;;;;;;;;;;;;;28.03;50.91;98889.63;2054353;28;19930;-68
2022/06/17 02:01:57;;;;;;;;;;;;;;;28.03;50.50;98884.97;2047876;28;19934;-68
2022/06/17 02:03:03;;;;;;;;;;;;;;;28.03;50.57;98889.63;2050904;28;20276;-68
2022/06/17 02:04:07;;;;;;;;;;;;;;;28.03;50.91;98892.34;2047933;28;20201;-69
2022/06/17 02:05:12;;;;;;;;;;;;;;;28.02;50.72;98887.97;2049126;28;20390;-68
2022/06/17 02:06:19;;;;;;;;;;;;;;;28.03;50.91;98890.44;2050236;28;19930;-68
2022/06/17 02:07:22;;;;;;;;;;;;;;;28.01;50.73;98889.88;2045939;28;21382;-68
2022/06/17 02:08:24;;;;;;;;;;;;;;;27.99;50.90;98889.28;2049447;28;20220;-68
2022/06/17 02:09:25;;;;;;;;;;;;;;;28.00;50.80;98888.22;2046389;28;19940;-69
2022/06/17 02:10:29;;;;;;;;;;;;;;;28.01;50.93;98884.41;2047700;28;19926;-69
2022/06/17 02:11:32;;;;;;;;;;;;;;;28.01;51.19;98887.13;2050446;28;19934;-68
2022/06/17 02:12:35;;;;;;;;;;;;;;;28.02;50.94;98883.31;2048733;28;20393;-68
2022/06/17 02:13:36;;;;;;;;;;;;;;;28.02;50.86;98877.06;2049622;28;19926;-69
2022/06/17 02:14:37;;;;;;;;;;;;;;;28.02;51.24;98882.50;2050205;28;20031;-69
2022/06/17 02:15:38;;;;;;;;;;;;;;;28.02;51.21;98877.06;2048808;28;19983;-69
2022/06/17 02:16:41;;;;;;;;;;;;;;;28.00;51.06;98868.28;2047876;28;20540;-70
2022/06/17 02:17:44;;;;;;;;;;;;;;;28.02;51.02;98874.31;2049185;28;19956;-69
2022/06/17 02:18:48;;;;;;;;;;;;;;;28.00;51.04;98876.47;2049603;28;19926;-69
2022/06/17 02:19:49;;;;;;;;;;;;;;;28.00;51.26;98873.75;2054231;28;20322;-69
2022/06/17 02:20:52;;;;;;;;;;;;;;;27.99;51.10;98872.94;2049087;28;19930;-69
2022/06/17 02:21:59;;;;;;;;;;;;;;;28.00;51.35;98871.88;2040310;28;19930;-69
2022/06/17 02:23:04;;;;;;;;;;;;;;;28.00;51.12;98871.88;2053540;28;19929;-69
2022/06/17 02:24:06;;;;;;;;;;;;;;;28.01;51.41;98878.97;2056253;28;20021;-69
2022/06/17 02:25:09;;;;;;;;;;;;;;;28.01;51.44;98876.22;2051295;28;20151;-69
2022/06/17 02:26:14;;;;;;;;;;;;;;;28.01;51.23;98875.41;2048942;28;19933;-69
2022/06/17 02:27:15;;;;;;;;;;;;;;;27.99;51.09;98883.03;2053815;28;20391;-69
2022/06/17 02:28:18;;;;;;;;;;;;;;;27.99;50.92;98872.13;2054216;28;19936;-70
2022/06/17 02:29:20;;;;;;;;;;;;;;;27.99;51.28;98877.56;2050805;28;19936;-70
2022/06/17 02:30:22;;;;;;;;;;;;;;;27.99;51.51;98872.13;2053240;28;20380;-69
2022/06/17 02:31:22;;;;;;;;;;;;;;;27.98;50.98;98862.31;2050561;28;19941;-69
2022/06/17 02:32:25;;;;;;;;;;;;;;;27.97;51.32;98863.38;2049201;28;19936;-70
2022/06/17 02:33:26;;;;;;;;;;;;;;;27.97;51.59;98866.09;2051475;28;19934;-69
2022/06/17 02:34:28;;;;;;;;;;;;;;;27.97;51.63;98858.75;2049356;28;19937;-69
2022/06/17 02:35:32;;;;;;;;;;;;;;;27.97;51.51;98864.22;2047197;28;19930;-69
2022/06/17 02:36:36;;;;;;;;;;;;;;;27.99;51.33;98861.22;2051757;28;19934;-69
2022/06/17 02:37:36;;;;;;;;;;;;;;;27.98;51.14;98865.03;2050112;28;19980;-69
2022/06/17 02:38:39;;;;;;;;;;;;;;;28.00;51.26;98868.28;2051636;28;20120;-69
2022/06/17 02:39:42;;;;;;;;;;;;;;;27.99;51.18;98867.47;2054190;28;19976;-69
2022/06/17 02:40:46;;;;;;;;;;;;;;;27.98;51.00;98865.84;2054939;28;19934;-69
2022/06/17 02:41:50;;;;;;;;;;;;;;;28.00;50.90;98868.28;2053918;28;19934;-69
2022/06/17 02:42:51;;;;;;;;;;;;;;;27.98;51.13;98865.03;2051330;28;19930;-69
2022/06/17 02:43:57;;;;;;;;;;;;;;;27.96;51.42;98857.09;2048624;28;20378;-69
2022/06/17 02:45:00;;;;;;;;;;;;;;;27.97;51.13;98863.38;2053432;28;20288;-69
2022/06/17 02:46:05;;;;;;;;;;;;;;;27.97;51.32;98856.03;2054811;28;19975;-69
2022/06/17 02:47:06;;;;;;;;;;;;;;;27.97;51.41;98855.19;2054755;28;19952;-70
2022/06/17 02:48:13;;;;;;;;;;;;;;;27.98;51.03;98856.84;2053599;28;20370;-69
2022/06/17 02:49:16;;;;;;;;;;;;;;;27.98;51.20;98856.84;2052556;28;20432;-69
2022/06/17 02:50:21;;;;;;;;;;;;;;;27.98;51.47;98854.13;2055073;28;19968;-69
2022/06/17 02:51:22;;;;;;;;;;;;;;;27.98;51.07;98860.41;2052437;28;19937;-70
2022/06/17 02:52:28;;;;;;;;;;;;;;;27.99;51.19;98858.47;2036760;28;19937;-69
2022/06/17 02:53:31;;;;;;;;;;;;;;;27.97;51.11;98857.91;2048367;28;20473;-69
2022/06/17 02:54:36;;;;;;;;;;;;;;;27.97;51.29;98863.38;2052579;28;20454;-69
2022/06/17 02:55:39;;;;;;;;;;;;;;;27.95;51.35;98857.38;2051525;28;20119;-69
2022/06/17 02:56:47;;;;;;;;;;;;;;;27.94;51.49;98853.81;2052815;28;19937;-69
2022/06/17 02:57:51;;;;;;;;;;;;;;;27.94;51.46;98855.72;2052958;28;19926;-69
2022/06/17 02:59:03;;;;;;;;;;;;;;;27.96;51.67;98861.72;2047137;28;19934;-69
2022/06/17 03:00:09;;;;;;;;;;;;;;;27.94;51.51;98858.44;2049558;28;19937;-70
2022/06/17 03:01:15;;;;;;;;;;;;;;;27.94;51.35;98855.72;2054969;28;19934;-70
2022/06/17 03:02:22;;;;;;;;;;;;;;;27.94;51.44;98864.72;2050575;28;19946;-69
2022/06/17 03:03:22;;;;;;;;;;;;;;;27.94;51.89;98863.88;2051211;28;19941;-69
2022/06/17 03:04:26;;;;;;;;;;;;;;;27.94;51.74;98859.25;2054017;28;19925;-70
2022/06/17 03:05:27;;;;;;;;;;;;;;;27.90;51.90;98858.16;2054915;28;20436;-70
2022/06/17 03:06:37;;;;;;;;;;;;;;;27.91;51.47;98857.06;2051405;28;19930;-70
2022/06/17 03:07:39;;;;;;;;;;;;;;;27.91;51.61;98861.69;2050547;28;19936;-69
2022/06/17 03:08:44;;;;;;;;;;;;;;;27.90;51.77;98860.88;2049374;28;20032;-70
2022/06/17 03:09:48;;;;;;;;;;;;;;;27.91;51.69;98861.69;2050191;28;19933;-70
2022/06/17 03:10:50;;;;;;;;;;;;;;;27.91;51.64;98861.69;2061669;28;20005;-70
2022/06/17 03:11:53;;;;;;;;;;;;;;;27.91;51.81;98867.13;2046580;28;19926;-69
2022/06/17 03:12:59;;;;;;;;;;;;;;;27.90;51.93;98863.59;2064695;28;19933;-70
2022/06/17 03:14:04;;;;;;;;;;;;;;;27.90;51.85;98857.31;2060421;28;19933;-69
2022/06/17 03:15:09;;;;;;;;;;;;;;;27.91;51.88;98859.78;2054211;28;20538;-69
2022/06/17 03:16:11;;;;;;;;;;;;;;;27.91;51.53;98858.97;2053868;28;19934;-69
2022/06/17 03:17:17;;;;;;;;;;;;;;;27.91;51.52;98859.78;2051512;28;21004;-70
2022/06/17 03:18:19;;;;;;;;;;;;;;;27.93;51.81;98864.97;2048644;28;20182;-70
2022/06/17 03:19:22;;;;;;;;;;;;;;;27.92;51.83;98864.16;2047637;28;19930;-69
2022/06/17 03:20:24;;;;;;;;;;;;;;;27.90;51.67;98869.03;2054797;28;20410;-69
2022/06/17 03:21:26;;;;;;;;;;;;;;;27.90;51.50;98873.69;2053717;28;19930;-69
2022/06/17 03:22:27;;;;;;;;;;;;;;;27.91;51.61;98870.69;2052159;28;19994;-69
2022/06/17 03:23:31;;;;;;;;;;;;;;;27.89;51.76;98867.41;2047967;28;19940;-69
2022/06/17 03:24:38;;;;;;;;;;;;;;;27.88;52.13;98871.19;2051677;28;22751;-70
2022/06/17 03:25:43;;;;;;;;;;;;;;;27.87;52.23;98879.66;2052299;28;19930;-70
2022/06/17 03:26:48;;;;;;;;;;;;;;;27.88;52.20;98870.38;2054252;28;19930;-69
2022/06/17 03:27:54;;;;;;;;;;;;;;;27.88;52.05;98875.84;2053861;28;20012;-65
2022/06/17 03:28:57;;;;;;;;;;;;;;;27.86;51.95;98870.66;2052129;28;19941;-70
2022/06/17 03:30:00;;;;;;;;;;;;;;;27.87;51.85;98879.66;2052773;28;20410;-69
2022/06/17 03:31:03;;;;;;;;;;;;;;;27.88;51.95;98875.84;2050432;28;20379;-69
2022/06/17 03:32:08;;;;;;;;;;;;;;;27.87;52.11;98869.56;2052662;28;19933;-69
2022/06/17 03:33:12;;;;;;;;;;;;;;;27.87;51.73;98883.19;2050832;28;20008;-69
2022/06/17 03:34:18;;;;;;;;;;;;;;;27.89;51.70;98882.91;2053843;28;20449;-69
2022/06/17 03:35:22;;;;;;;;;;;;;;;27.90;52.03;98884.59;2053988;28;19934;-69
2022/06/17 03:36:26;;;;;;;;;;;;;;;27.88;51.90;98876.66;2053359;28;19979;-69
2022/06/17 03:37:31;;;;;;;;;;;;;;;27.87;52.08;98882.38;2051499;28;19930;-69
2022/06/17 03:38:36;;;;;;;;;;;;;;;27.87;52.01;98885.91;2054390;28;19937;-70
2022/06/17 03:39:39;;;;;;;;;;;;;;;27.87;51.80;98885.09;2054043;28;20386;-69
2022/06/17 03:40:42;;;;;;;;;;;;;;;27.88;52.00;98892.19;2056135;28;19930;-70
2022/06/17 03:41:46;;;;;;;;;;;;;;;27.88;51.76;98882.09;2053575;28;19933;-69
2022/06/17 03:42:52;;;;;;;;;;;;;;;27.89;52.01;98891.09;2054816;28;20062;-69
2022/06/17 03:43:58;;;;;;;;;;;;;;;27.91;51.85;98878.03;2054078;28;19948;-69
2022/06/17 03:45:05;;;;;;;;;;;;;;;27.90;51.99;98884.59;2056776;28;20013;-69
2022/06/17 03:46:06;;;;;;;;;;;;;;;27.88;51.92;98881.28;2052418;28;19926;-69
2022/06/17 03:47:13;;;;;;;;;;;;;;;27.90;51.97;98888.13;2054415;28;19933;-69
2022/06/17 03:48:22;;;;;;;;;;;;;;;27.89;51.61;98885.66;2053819;28;19931;-69
2022/06/17 03:49:27;;;;;;;;;;;;;;;27.88;51.81;98890.28;2055739;28;19987;-69
2022/06/17 03:50:30;;;;;;;;;;;;;;;27.89;51.85;98888.38;2043714;28;19940;-69
2022/06/17 03:51:35;;;;;;;;;;;;;;;27.88;51.84;98892.19;2050973;28;20181;-69
2022/06/17 03:52:37;;;;;;;;;;;;;;;27.89;52.12;98896.56;2053097;28;20129;-70
2022/06/17 03:53:41;;;;;;;;;;;;;;;27.85;52.03;98899.78;2053381;28;19961;-69
2022/06/17 03:54:42;;;;;;;;;;;;;;;27.87;52.07;98901.47;2055278;28;20115;-69
2022/06/17 03:55:44;;;;;;;;;;;;;;;27.84;51.75;98903.63;2058139;28;19973;-69
2022/06/17 03:56:47;;;;;;;;;;;;;;;27.85;52.01;98898.97;2051069;28;19956;-69
2022/06/17 03:57:50;;;;;;;;;;;;;;;27.87;52.08;98901.47;2056032;28;20017;-69
2022/06/17 03:58:52;;;;;;;;;;;;;;;27.84;51.97;98902.81;2052928;28;19930;-69
2022/06/17 03:59:54;;;;;;;;;;;;;;;27.83;51.97;98907.44;2056187;28;19992;-69
2022/06/17 04:00:58;;;;;;;;;;;;;;;27.84;52.03;98908.25;2056199;28;19976;-69
2022/06/17 04:02:04;;;;;;;;;;;;;;;27.83;51.97;98914.75;2055474;28;20483;-69
2022/06/17 04:03:06;;;;;;;;;;;;;;;27.84;52.01;98902.81;2051289;28;19961;-69
2022/06/17 04:04:12;;;;;;;;;;;;;;;27.82;52.04;98902.22;2057482;28;19948;-69
2022/06/17 04:05:14;;;;;;;;;;;;;;;27.82;52.03;98904.94;2055201;28;19926;-69
2022/06/17 04:06:17;;;;;;;;;;;;;;;27.83;52.18;98903.84;2057711;28;19930;-69
2022/06/17 04:07:18;;;;;;;;;;;;;;;27.82;51.81;98904.94;2056018;28;19937;-70
2022/06/17 04:08:19;;;;;;;;;;;;;;;27.84;52.11;98903.63;2055108;28;20426;-69
2022/06/17 04:09:21;;;;;;;;;;;;;;;27.85;52.11;98901.72;2053934;28;19941;-70
2022/06/17 04:10:25;;;;;;;;;;;;;;;27.85;51.62;98904.44;2055043;28;20387;-69
2022/06/17 04:11:27;;;;;;;;;;;;;;;27.84;52.09;98900.06;2055271;28;19929;-69
2022/06/17 04:12:30;;;;;;;;;;;;;;;27.85;52.02;98905.25;2056971;28;20125;-69
2022/06/17 04:13:32;;;;;;;;;;;;;;;27.85;52.08;98904.44;2054937;28;19930;-69
2022/06/17 04:14:46;;;;;;;;;;;;;;;27.83;51.79;98912.88;2057867;28;20028;-69
2022/06/17 04:15:49;;;;;;;;;;;;;;;27.82;52.05;98894.88;2056922;28;19936;-69
2022/06/17 04:16:56;;;;;;;;;;;;;;;27.84;51.64;98906.34;2055668;28;20216;-69
2022/06/17 04:17:57;;;;;;;;;;;;;;;27.83;52.03;98906.59;2054918;28;19930;-70
2022/06/17 04:19:02;;;;;;;;;;;;;;;27.83;51.91;98906.59;2054960;28;20300;-70
2022/06/17 04:20:20;;;;;;;;;;;;;;;27.83;51.69;98910.16;2052879;28;19934;-70
2022/06/17 04:21:22;;;;;;;;;;;;;;;27.82;52.06;98908.50;2054863;28;19937;-70
2022/06/17 04:22:25;;;;;;;;;;;;;;;27.82;51.84;98911.22;2056165;28;20390;-70
2022/06/17 04:23:28;;;;;;;;;;;;;;;27.82;51.95;98913.94;2053174;28;19944;-70
2022/06/17 04:24:29;;;;;;;;;;;;;;;27.81;52.04;98920.50;2052420;28;20391;-70
2022/06/17 04:25:33;;;;;;;;;;;;;;;27.82;51.88;98922.13;2055925;28;19930;-69
2022/06/17 04:26:35;;;;;;;;;;;;;;;27.82;52.02;98921.31;2056755;28;19937;-69
2022/06/17 04:28:54;;;;;;;;;;;;;;;27.80;52.22;98927.03;2048696;28;20199;-69
2022/06/17 04:29:55;;;;;;;;;;;;;;;27.81;51.73;98925.13;2055916;28;19930;-69
2022/06/17 04:30:59;;;;;;;;;;;;;;;27.79;51.89;98930.81;2055473;28;19977;-69
2022/06/17 04:32:04;;;;;;;;;;;;;;;27.80;52.09;98923.47;2055970;28;19932;-69
2022/06/17 04:33:10;;;;;;;;;;;;;;;27.78;52.04;98928.34;2057359;28;20386;-69
2022/06/17 04:34:14;;;;;;;;;;;;;;;27.78;52.39;98929.16;2053818;28;19926;-69
2022/06/17 04:35:15;;;;;;;;;;;;;;;27.78;52.04;98923.69;2056235;28;19978;-69
2022/06/17 04:36:20;;;;;;;;;;;;;;;27.78;52.14;98923.69;2050234;28;19938;-69
2022/06/17 04:37:22;;;;;;;;;;;;;;;27.79;51.86;98935.41;2052546;28;19933;-69
2022/06/17 04:38:24;;;;;;;;;;;;;;;27.80;51.89;98935.22;2051393;28;20496;-69
2022/06/17 04:39:28;;;;;;;;;;;;;;;27.80;51.83;98934.34;2055781;28;20383;-69
2022/06/17 04:40:35;;;;;;;;;;;;;;;27.79;51.93;98938.16;2054652;28;19934;-69
2022/06/17 04:41:38;;;;;;;;;;;;;;;27.79;52.14;98932.69;2052759;28;20518;-69
2022/06/17 04:42:41;;;;;;;;;;;;;;;27.79;51.99;98938.16;2053809;28;19992;-69
2022/06/17 04:43:47;;;;;;;;;;;;;;;27.78;52.25;98942.78;2056278;28;19938;-69
2022/06/17 04:44:50;;;;;;;;;;;;;;;27.78;52.30;98940.06;2057252;28;20626;-68
2022/06/17 04:45:55;;;;;;;;;;;;;;;27.77;51.85;98935.66;2057433;28;19930;-68
2022/06/17 04:46:59;;;;;;;;;;;;;;;27.79;52.09;98938.16;2053092;28;19940;-68
2022/06/17 04:48:01;;;;;;;;;;;;;;;27.77;52.15;98935.66;2053617;28;20106;-68
2022/06/17 04:49:04;;;;;;;;;;;;;;;27.79;52.00;98938.16;2054465;28;20033;-68
2022/06/17 04:50:11;;;;;;;;;;;;;;;27.78;52.00;98939.25;2055381;28;19930;-69
2022/06/17 04:51:12;;;;;;;;;;;;;;;27.78;52.16;98941.97;2055287;28;20011;-69
2022/06/17 04:52:21;;;;;;;;;;;;;;;27.79;52.22;98943.59;2051401;28;20299;-69
2022/06/17 04:53:23;;;;;;;;;;;;;;;27.78;52.31;98944.69;2051515;28;20348;-69
2022/06/17 04:54:23;;;;;;;;;;;;;;;27.79;52.14;98944.44;2051877;28;19938;-69
2022/06/17 04:55:28;;;;;;;;;;;;;;;27.80;51.86;98945.25;2036437;28;19937;-69
2022/06/17 04:56:30;;;;;;;;;;;;;;;27.80;52.20;98940.66;2044653;28;19934;-69
2022/06/17 04:57:32;;;;;;;;;;;;;;;27.79;52.36;98949.03;2044661;28;20391;-69
2022/06/17 04:58:33;;;;;;;;;;;;;;;27.81;52.31;98942.28;2043944;28;20666;-69
2022/06/17 04:59:37;;;;;;;;;;;;;;;27.80;52.20;98934.34;2052265;28;19930;-69
2022/06/17 05:00:37;;;;;;;;;;;;;;;27.78;52.08;98939.25;2051219;28;19934;-69
2022/06/17 05:01:39;;;;;;;;;;;;;;;27.75;52.16;98937.84;2044594;28;19968;-69
2022/06/17 05:02:40;;;;;;;;;;;;;;;27.75;52.07;98943.28;2055979;28;20363;-70
2022/06/17 05:03:43;;;;;;;;;;;;;;;27.76;52.26;98950.38;2054374;28;20160;-69
2022/06/17 05:04:45;;;;;;;;;;;;;;;27.77;52.25;98952.00;2052550;28;19953;-69
2022/06/17 05:05:47;;;;;;;;;;;;;;;27.78;52.05;98953.69;2051584;28;20361;-70
2022/06/17 05:06:48;;;;;;;;;;;;;;;27.77;52.18;98951.19;2055576;28;19930;-70
2022/06/17 05:07:53;;;;;;;;;;;;;;;27.76;52.36;98955.00;2047898;28;20055;-70
2022/06/17 05:08:58;;;;;;;;;;;;;;;27.79;52.27;98949.91;2049273;28;19934;-70
2022/06/17 05:10:02;;;;;;;;;;;;;;;27.77;51.93;98957.47;2055942;28;19929;-69
2022/06/17 05:11:07;;;;;;;;;;;;;;;27.76;52.25;98965.91;2054672;28;19926;-70
2022/06/17 05:12:11;;;;;;;;;;;;;;;27.74;52.55;98962.63;2055217;28;19934;-70
2022/06/17 05:13:17;;;;;;;;;;;;;;;27.74;52.28;98954.44;2055768;28;20344;-69
2022/06/17 05:14:22;;;;;;;;;;;;;;;27.75;52.54;98958.78;2054657;28;20068;-69
2022/06/17 05:15:24;;;;;;;;;;;;;;;27.79;52.22;98954.50;2055310;28;20295;-69
2022/06/17 05:16:26;;;;;;;;;;;;;;;27.81;51.86;98955.09;2053421;28;19937;-70
2022/06/17 05:17:26;;;;;;;;;;;;;;;27.79;52.05;98951.78;2053064;28;19934;-70
2022/06/17 05:18:29;;;;;;;;;;;;;;;27.80;51.83;98957.00;2052223;28;20279;-69
2022/06/17 05:19:31;;;;;;;;;;;;;;;27.77;52.07;98953.94;2053600;28;20024;-70
2022/06/17 05:20:33;;;;;;;;;;;;;;;27.75;51.81;98947.91;2049835;28;19930;-70
2022/06/17 05:21:33;;;;;;;;;;;;;;;27.74;51.61;98954.44;2052721;28;19933;-69
2022/06/17 05:22:37;;;;;;;;;;;;;;;27.73;51.86;98950.91;2049338;28;20391;-70
2022/06/17 05:23:38;;;;;;;;;;;;;;;27.72;52.26;98951.97;2046728;28;19930;-70
2022/06/17 05:24:39;;;;;;;;;;;;;;;27.74;52.05;98952.53;2054712;28;19926;-70
2022/06/17 05:25:42;;;;;;;;;;;;;;;27.75;52.22;98951.47;2054759;28;19981;-69
2022/06/17 05:26:43;;;;;;;;;;;;;;;27.74;51.72;98952.53;2049052;28;19934;-70
2022/06/17 05:27:44;;;;;;;;;;;;;;;27.75;51.89;98953.34;2048721;28;19933;-70
2022/06/17 05:28:47;;;;;;;;;;;;;;;27.73;51.97;98959.06;2043841;28;19926;-70
2022/06/17 05:29:49;;;;;;;;;;;;;;;27.73;52.06;98950.06;2047452;28;20158;-69
2022/06/17 05:30:52;;;;;;;;;;;;;;;27.73;51.84;98953.63;2050946;28;20395;-70
2022/06/17 05:31:53;;;;;;;;;;;;;;;27.73;51.86;98950.91;2053269;28;19934;-70
2022/06/17 05:32:55;;;;;;;;;;;;;;;27.72;51.83;98951.97;2051005;28;20054;-70
2022/06/17 05:33:56;;;;;;;;;;;;;;;27.73;51.77;98950.06;2053871;28;19942;-69